Terminal Aerodrome Forecast
Issued by NWS

Current Version | Previous Version | Graphics & Text | Print | Product List | Glossary On
Versions: 1 2 3 4 5 6 7 8 9 10 11 12 13 14 15 16 17 18 19 20 21 22 23 24 25 26 27 28 29 30 31 32 33 34 35 36 37
000
FTUS41 KRNK 250824 AAA
TAFLWB
TAF AMD
KLWB 250824Z 2508/2606 00000KT 5SM RA SCT013 OVC035
      TEMPO 2509/2511 1SM -RA BR OVC013
     FM251100 02002KT 1 1/2SM -RA BR OVC001
     FM251300 VRB03KT P6SM OVC003
     FM251700 31010G18KT P6SM BKN010=

USA.gov is the U.S. government's official web portal to all federal, state and local government web resources and services.